Time;durP1;ratioP1;P1;durP2;ratioP2;P2;SDS_P1;SDS_P2;PMS_P1;PMS_P2;Temp;Humidity;BMP_temperature;BMP_pressure;BME280_temperature;BME280_humidity;BME280_pressure;Samples;Min_cycle;Max_cycle;Signal;HPM_P1;HPM_P2
2024/01/27 00:01:39;;;;;;;33.47;14.52;;;;;;;-0.69;100.00;97978.94;5085671;28;20093;-83
2024/01/27 00:04:04;;;;;;;36.28;14.68;;;;;;;-0.70;100.00;97998.19;5074120;28;20077;-81
2024/01/27 00:06:30;;;;;;;40.97;16.38;;;;;;;-0.58;100.00;98000.69;5067289;28;20063;-81
2024/01/27 00:08:56;;;;;;;38.05;17.48;;;;;;;-0.59;100.00;98004.22;5078799;28;20059;-82
2024/01/27 00:11:23;;;;;;;44.65;18.52;;;;;;;-0.53;100.00;98005.03;5074036;28;20103;-82
2024/01/27 00:13:49;;;;;;;61.55;25.88;;;;;;;-0.54;100.00;97998.88;5056812;28;20165;-82
2024/01/27 00:16:14;;;;;;;84.43;30.45;;;;;;;-0.49;100.00;97988.34;5083831;28;20032;-81
2024/01/27 00:18:40;;;;;;;43.63;18.13;;;;;;;-0.45;100.00;98000.53;5073974;28;20052;-82
2024/01/27 00:21:06;;;;;;;34.58;14.75;;;;;;;-0.63;100.00;97994.63;5073841;28;20280;-83
2024/01/27 00:23:32;;;;;;;37.72;15.75;;;;;;;-0.70;100.00;97982.44;5067592;28;20028;-81
2024/01/27 00:25:58;;;;;;;29.67;13.07;;;;;;;-0.79;100.00;97986.91;5081050;28;20048;-82
2024/01/27 00:28:24;;;;;;;34.45;14.43;;;;;;;-0.82;100.00;97993.06;5068512;28;20115;-82
2024/01/27 00:30:52;;;;;;;36.60;13.45;;;;;;;-0.85;100.00;97998.34;5053878;28;20052;-83
2024/01/27 00:33:17;;;;;;;33.03;13.60;;;;;;;-0.79;100.00;97992.16;5064102;28;20032;-81
2024/01/27 00:35:43;;;;;;;30.88;13.48;;;;;;;-0.74;100.00;98001.72;5057558;28;20024;-82
2024/01/27 00:38:09;;;;;;;31.77;11.63;;;;;;;-0.78;100.00;98002.66;5067531;28;20079;-82
2024/01/27 00:40:34;;;;;;;31.15;13.75;;;;;;;-0.75;100.00;98002.63;5073692;28;20065;-81
2024/01/27 00:43:02;;;;;;;33.60;15.63;;;;;;;-0.92;100.00;97988.78;5073500;28;20115;-83
2024/01/27 00:45:29;;;;;;;45.05;17.10;;;;;;;-0.80;100.00;97979.94;5063535;28;20031;-81
2024/01/27 00:47:58;;;;;;;40.55;16.73;;;;;;;-0.75;100.00;97964.97;5070051;28;20467;-83
2024/01/27 00:50:23;;;;;;;39.03;15.90;;;;;;;-0.85;100.00;97956.34;5053349;28;20058;-82
2024/01/27 00:52:49;;;;;;;25.27;11.50;;;;;;;-0.89;100.00;97945.91;5053500;28;20028;-82
2024/01/27 00:55:15;;;;;;;26.27;12.82;;;;;;;-0.91;100.00;97935.41;5069511;28;20035;-82
2024/01/27 00:57:40;;;;;;;37.85;14.45;;;;;;;-0.73;100.00;97935.19;5086356;28;20173;-82
2024/01/27 01:00:08;;;;;;;34.35;14.85;;;;;;;-0.71;100.00;97922.06;5058606;28;20119;-82
2024/01/27 01:02:34;;;;;;;29.50;13.65;;;;;;;-0.65;100.00;97927.25;5065922;28;20025;-82
2024/01/27 01:05:00;;;;;;;39.03;16.08;;;;;;;-0.69;100.00;97929.03;5078484;28;20055;-83
2024/01/27 01:07:25;;;;;;;44.92;16.50;;;;;;;-0.69;100.00;97929.03;5052932;28;20056;-82
2024/01/27 01:09:51;;;;;;;36.95;16.13;;;;;;;-0.63;100.00;97930.72;5053173;28;20025;-83
2024/01/27 01:12:16;;;;;;;44.85;18.75;;;;;;;-0.53;100.00;97927.09;5053390;28;20388;-82
2024/01/27 01:14:43;;;;;;;55.17;23.25;;;;;;;-0.46;100.00;97948.91;5053183;28;20048;-82
2024/01/27 01:17:09;;;;;;;71.65;29.33;;;;;;;-0.39;100.00;97947.91;5053654;28;20082;-83
2024/01/27 01:19:37;;;;;;;71.88;26.92;;;;;;;-0.42;100.00;97945.31;5074227;28;20429;-82
2024/01/27 01:22:02;;;;;;;75.78;29.67;;;;;;;-0.52;100.00;97920.94;5078240;28;20471;-83
2024/01/27 01:24:29;;;;;;;65.38;26.52;;;;;;;-0.46;100.00;97927.88;5069523;28;20044;-82
2024/01/27 01:26:55;;;;;;;66.88;27.38;;;;;;;-0.49;100.00;97933.19;5053225;28;20093;-82
2024/01/27 01:29:22;;;;;;;68.57;27.48;;;;;;;-0.47;100.00;97952.41;5052975;28;20065;-82
2024/01/27 01:31:47;;;;;;;73.20;29.10;;;;;;;-0.43;100.00;97949.72;5056937;28;20492;-82
2024/01/27 01:34:13;;;;;;;78.55;31.02;;;;;;;-0.40;100.00;97948.81;5058942;28;20121;-82
2024/01/27 01:36:39;;;;;;;76.35;31.17;;;;;;;-0.43;100.00;97941.00;5060286;28;20025;-82
2024/01/27 01:39:04;;;;;;;84.72;35.17;;;;;;;-0.44;100.00;97944.50;5072913;28;20028;-82
2024/01/27 01:41:30;;;;;;;91.22;35.83;;;;;;;-0.48;100.00;97934.91;5089834;28;20395;-82
2024/01/27 01:43:55;;;;;;;80.32;32.45;;;;;;;-0.43;100.00;97944.44;5070823;28;20059;-82
2024/01/27 01:46:23;;;;;;;79.45;32.00;;;;;;;-0.45;100.00;97935.72;5069540;28;20502;-82
2024/01/27 01:48:49;;;;;;;73.20;30.88;;;;;;;-0.41;100.00;97947.06;5070337;28;20059;-81
2024/01/27 01:51:16;;;;;;;78.15;32.20;;;;;;;-0.57;100.00;97941.13;5061383;28;20052;-82
2024/01/27 01:53:42;;;;;;;69.63;28.98;;;;;;;-0.56;100.00;97945.53;5076787;28;20032;-72
2024/01/27 01:56:08;;;;;;;83.60;32.90;;;;;;;-0.59;100.00;97959.56;5078508;28;20032;-83
2024/01/27 01:58:34;;;;;;;83.07;31.38;;;;;;;-0.62;100.00;97964.84;5062636;28;20485;-83
2024/01/27 02:01:03;;;;;;;61.97;27.08;;;;;;;-0.66;100.00;97947.38;5061663;28;20029;-83
2024/01/27 02:03:28;;;;;;;61.80;24.73;;;;;;;-0.77;100.00;97943.13;5058913;28;20036;-83
2024/01/27 02:05:55;;;;;;;44.25;20.52;;;;;;;-0.82;100.00;97940.56;5058617;28;20488;-83
2024/01/27 02:08:20;;;;;;;46.67;20.45;;;;;;;-0.92;100.00;97920.53;5074744;28;20024;-82
2024/01/27 02:10:46;;;;;;;47.08;19.25;;;;;;;-0.89;100.00;97910.00;5057819;28;20028;-83
2024/01/27 02:13:19;;;;;;;45.42;18.38;;;;;;;-0.82;100.00;97911.66;5057245;28;20048;-82
2024/01/27 02:15:44;;;;;;;;;;;;;;;-0.92;100.00;97899.53;5059526;28;20132;-82
2024/01/27 02:18:10;;;;;;;36.45;15.07;;;;;;;-1.03;100.00;97882.16;5058934;28;19940;-82
2024/01/27 02:20:37;;;;;;;33.50;13.18;;;;;;;-0.96;100.00;97879.47;5078797;28;20024;-82
2024/01/27 02:23:04;;;;;;;30.80;14.15;;;;;;;-0.91;100.00;97872.41;5078727;28;20027;-83
2024/01/27 02:25:31;;;;;;;30.15;13.30;;;;;;;-0.85;100.00;97877.56;5077692;28;20139;-82
2024/01/27 02:27:56;;;;;;;36.97;15.70;;;;;;;-0.83;100.00;97881.03;5078592;28;20039;-82
2024/01/27 02:30:22;;;;;;;41.80;16.42;;;;;;;-0.82;100.00;97888.03;5078535;28;20039;-83
2024/01/27 02:32:48;;;;;;;38.92;17.60;;;;;;;-0.70;100.00;97893.13;5078482;28;20024;-83
2024/01/27 02:35:14;;;;;;;54.58;20.42;;;;;;;-0.67;100.00;97886.97;5078319;28;20054;-83
2024/01/27 02:37:43;;;;;;;55.90;21.70;;;;;;;-0.64;100.00;97869.44;5077964;28;20027;-83
2024/01/27 02:40:12;;;;;;;48.55;20.35;;;;;;;-0.52;100.00;97875.44;5094414;28;20020;-83
2024/01/27 02:42:38;;;;;;;41.22;19.00;;;;;;;-0.56;100.00;97878.09;5078157;28;20024;-83
2024/01/27 02:45:04;;;;;;;41.35;18.33;;;;;;;-0.45;100.00;97874.44;5077380;28;20046;-83
2024/01/27 02:47:30;;;;;;;40.25;18.92;;;;;;;-0.38;100.00;97870.84;5078568;28;20513;-83
2024/01/27 02:49:55;;;;;;;43.17;19.08;;;;;;;-0.32;100.00;97863.75;5080472;28;20106;-83
2024/01/27 02:52:21;;;;;;;44.95;18.58;;;;;;;-0.18;100.00;97868.78;5060847;28;20056;-84
2024/01/27 02:54:47;;;;;;;46.40;20.35;;;;;;;-0.03;100.00;97882.56;5057975;28;20028;-84
2024/01/27 02:57:15;;;;;;;50.55;21.90;;;;;;;-0.13;100.00;97878.38;5056815;28;20093;-83
2024/01/27 02:59:41;;;;;;;47.85;21.52;;;;;;;0.01;100.00;97883.41;5061085;28;20078;-83
2024/01/27 03:02:06;;;;;;;54.55;24.73;;;;;;;-0.01;100.00;97880.81;5080281;28;20414;-83
2024/01/27 03:04:32;;;;;;;57.70;24.70;;;;;;;0.13;100.00;97888.47;5073463;28;20051;-83
2024/01/27 03:06:57;;;;;;;65.15;25.67;;;;;;;0.22;100.00;97885.69;5063413;28;20024;-84
2024/01/27 03:09:23;;;;;;;56.38;24.75;;;;;;;0.19;100.00;97867.34;5061502;28;20032;-83
2024/01/27 03:11:49;;;;;;;62.33;24.50;;;;;;;0.17;100.00;97868.25;5074970;28;20042;-83
2024/01/27 03:14:14;;;;;;;59.13;26.05;;;;;;;0.29;100.00;97889.09;5082009;28;20115;-83
2024/01/27 03:16:40;;;;;;;60.38;24.35;;;;;;;0.39;100.00;97872.28;5082826;28;20034;-83
2024/01/27 03:19:06;;;;;;;49.45;22.58;;;;;;;0.31;100.00;97861.88;5082638;28;20578;-83
2024/01/27 03:21:32;;;;;;;61.58;26.25;;;;;;;0.22;100.00;97869.91;5077542;28;20475;-83
2024/01/27 03:23:58;;;;;;;64.65;26.20;;;;;;;0.32;100.00;97863.63;5071318;28;20056;-83
2024/01/27 03:26:23;;;;;;;60.53;25.75;;;;;;;0.37;100.00;97880.19;5081450;28;20031;-84
2024/01/27 03:28:49;;;;;;;60.25;25.38;;;;;;;0.25;100.00;97871.63;5067427;28;20031;-84
2024/01/27 03:31:15;;;;;;;59.55;25.17;;;;;;;0.37;100.00;97882.81;5060618;28;20033;-83
2024/01/27 03:33:40;;;;;;;63.42;27.02;;;;;;;0.46;100.00;97866.88;5059182;28;20504;-83
2024/01/27 03:36:12;;;;;;;63.33;24.55;;;;;;;0.46;100.00;97858.97;5067950;28;20115;-83
2024/01/27 03:38:39;;;;;;;61.88;25.73;;;;;;;0.48;100.00;97880.03;5073439;28;20479;-83
2024/01/27 03:41:05;;;;;;;45.72;21.02;;;;;;;0.53;100.00;97873.78;5064653;28;20349;-83
2024/01/27 03:43:31;;;;;;;50.05;22.52;;;;;;;0.54;100.00;97866.75;5062871;28;20058;-83
2024/01/27 03:46:00;;;;;;;53.78;23.27;;;;;;;0.55;100.00;97866.72;5058253;28;20088;-83
2024/01/27 03:48:25;;;;;;;48.67;20.45;;;;;;;0.52;100.00;97855.41;5080459;28;20028;-83
2024/01/27 03:50:51;;;;;;;55.28;19.15;;;;;;;0.60;100.00;97839.47;5066434;28;20093;-84
2024/01/27 03:53:17;;;;;;;42.38;19.65;;;;;;;0.54;100.00;97838.69;5064309;28;20044;-83
2024/01/27 03:55:43;;;;;;;42.55;18.10;;;;;;;0.37;100.00;97827.56;5062747;28;20032;-83
2024/01/27 03:58:08;;;;;;;45.05;18.77;;;;;;;0.28;100.00;97808.44;5068978;28;20033;-82
2024/01/27 04:00:34;;;;;;;47.40;20.92;;;;;;;0.32;100.00;97832.06;5069531;28;20038;-83
2024/01/27 04:03:00;;;;;;;50.13;21.38;;;;;;;0.31;100.00;97832.94;5083410;28;20080;-84
2024/01/27 04:05:29;;;;;;;50.85;20.63;;;;;;;0.48;100.00;97838.81;5080830;28;20116;-83
2024/01/27 04:07:57;;;;;;;43.40;19.83;;;;;;;0.48;100.00;97836.16;5063573;28;20020;-82
2024/01/27 04:10:23;;;;;;;43.80;19.42;;;;;;;0.53;100.00;97836.94;5080305;28;20484;-83
2024/01/27 04:12:49;;;;;;;48.42;20.75;;;;;;;0.51;100.00;97838.75;5081252;28;20081;-84
2024/01/27 04:15:14;;;;;;;49.65;20.30;;;;;;;0.45;100.00;97825.69;5078804;28;20458;-83
2024/01/27 04:17:41;;;;;;;41.58;19.30;;;;;;;0.62;100.00;97832.41;5068239;28;20063;-83
2024/01/27 04:20:07;;;;;;;47.63;20.77;;;;;;;0.73;100.00;97844.50;5065471;28;20095;-84
2024/01/27 04:22:36;;;;;;;47.13;20.98;;;;;;;0.73;100.00;97843.63;5055957;28;20044;-83
2024/01/27 04:25:03;;;;;;;48.05;21.02;;;;;;;0.80;100.00;97818.91;5068094;28;20115;-83
2024/01/27 04:27:29;;;;;;;53.65;23.10;;;;;;;0.92;100.00;97839.75;5061604;28;20456;-83
2024/01/27 04:29:56;;;;;;;57.03;24.13;;;;;;;0.94;100.00;97828.28;5046308;28;20036;-83
2024/01/27 04:32:23;;;;;;;47.45;23.48;;;;;;;0.94;100.00;97822.16;5069945;28;20031;-83
2024/01/27 04:34:49;;;;;;;51.70;22.15;;;;;;;0.89;100.00;97834.53;5062162;28;20019;-83
2024/01/27 04:37:15;;;;;;;47.83;20.63;;;;;;;0.74;100.00;97817.25;5070520;28;20105;-83
2024/01/27 04:39:40;;;;;;;41.13;20.67;;;;;;;0.72;100.00;97821.69;5062089;28;20181;-84
2024/01/27 04:42:06;;;;;;;46.63;20.67;;;;;;;0.88;100.00;97825.78;5061083;28;20492;-84
2024/01/27 04:44:32;;;;;;;48.80;22.10;;;;;;;0.98;100.00;97832.59;5076735;28;20024;-84
2024/01/27 04:46:58;;;;;;;48.25;21.30;;;;;;;0.97;100.00;97827.34;5068491;28;20027;-84
2024/01/27 04:49:23;;;;;;;48.08;20.83;;;;;;;0.94;100.00;97824.78;5062572;28;20028;-84
2024/01/27 04:51:49;;;;;;;47.33;20.42;;;;;;;0.96;100.00;97815.06;5069519;28;20034;-84
2024/01/27 04:54:15;;;;;;;48.13;21.40;;;;;;;1.03;100.00;97832.50;5066733;28;20047;-84
2024/01/27 04:56:41;;;;;;;49.55;22.50;;;;;;;0.91;100.00;97846.78;5058476;28;20514;-84
2024/01/27 04:59:06;;;;;;;40.50;18.50;;;;;;;0.77;100.00;97829.50;5062645;28;20415;-82
2024/01/27 05:01:32;;;;;;;44.22;20.02;;;;;;;0.67;100.00;97841.09;5075038;28;20085;-83
2024/01/27 05:03:58;;;;;;;41.55;20.23;;;;;;;0.50;100.00;97837.00;5074779;28;20024;-82
2024/01/27 05:06:24;;;;;;;50.05;22.33;;;;;;;0.62;100.00;97835.91;5076582;28;20028;-85
2024/01/27 05:08:50;;;;;;;53.40;21.75;;;;;;;0.79;100.00;97856.66;5065746;28;20142;-84
2024/01/27 05:11:25;;;;;;;50.50;22.23;;;;;;;0.75;100.00;97832.16;5054658;28;20044;-84
2024/01/27 05:13:50;;;;;;;56.53;23.17;;;;;;;0.88;100.00;97840.69;5060942;28;20020;-83
2024/01/27 05:16:16;;;;;;;51.03;21.95;;;;;;;1.00;100.00;97845.72;5070201;28;20372;-83
2024/01/27 05:18:42;;;;;;;58.67;24.65;;;;;;;1.06;100.00;97858.75;5064857;28;20166;-84
2024/01/27 05:21:07;;;;;;;57.58;24.55;;;;;;;1.00;100.00;97851.00;5071340;28;20468;-84
2024/01/27 05:23:33;;;;;;;66.63;26.73;;;;;;;1.11;100.00;97840.25;5078975;28;20029;-84
2024/01/27 05:25:59;;;;;;;58.22;24.88;;;;;;;1.07;100.00;97831.53;5071315;28;20044;-83
2024/01/27 05:28:24;;;;;;;57.60;25.25;;;;;;;1.24;100.00;97847.00;5073045;28;20511;-82
2024/01/27 05:30:50;;;;;;;38.45;16.65;;;;;;;1.29;100.00;97835.47;5091149;28;20037;-88
2024/01/27 05:33:16;;;;;;;50.22;21.73;;;;;;;1.43;100.00;97848.34;5096859;28;20032;-91
2024/01/27 05:35:42;;;;;;;46.17;22.35;;;;;;;1.47;100.00;97839.50;5082289;28;20028;-89
2024/01/27 05:38:08;;;;;;;52.03;23.38;;;;;;;1.55;100.00;97861.25;5077178;28;20035;-83
2024/01/27 05:40:33;;;;;;;43.95;20.90;;;;;;;1.46;100.00;97848.28;5091314;28;20488;-82
2024/01/27 05:42:59;;;;;;;54.45;23.58;;;;;;;1.44;100.00;97832.53;5062814;28;20035;-83
2024/01/27 05:45:26;;;;;;;60.90;26.83;;;;;;;1.52;100.00;97859.56;5064369;28;20106;-84
2024/01/27 05:47:52;;;;;;;59.40;25.75;;;;;;;1.63;100.00;97860.19;5059939;28;20050;-84
2024/01/27 05:50:17;;;;;;;41.85;20.52;;;;;;;1.64;100.00;97861.06;5066464;28;20035;-83
2024/01/27 05:52:43;;;;;;;48.80;21.30;;;;;;;1.68;100.00;97860.09;5078342;28;20389;-83
2024/01/27 05:55:09;;;;;;;48.20;22.80;;;;;;;1.67;100.00;97862.75;5074370;28;20500;-84
2024/01/27 05:57:35;;;;;;;50.83;24.58;;;;;;;1.67;100.00;97846.94;5062312;28;20021;-84
2024/01/27 06:00:01;;;;;;;50.03;24.20;;;;;;;1.68;100.00;97838.13;5082544;28;20080;-87
2024/01/27 06:02:27;;;;;;;60.47;30.60;;;;;;;1.81;100.00;97855.44;5064616;28;20162;-84
2024/01/27 06:04:52;;;;;;;61.50;28.95;;;;;;;1.69;100.00;97829.34;5083733;28;20024;-85
2024/01/27 06:07:18;;;;;;;79.38;34.67;;;;;;;1.81;100.00;97850.16;5074014;28;20040;-85
2024/01/27 06:09:43;;;;;;;81.50;36.85;;;;;;;1.84;100.00;97845.69;5066962;28;20031;-87
2024/01/27 06:12:09;;;;;;;68.55;30.20;;;;;;;1.69;100.00;97837.25;5066032;28;20035;-85
2024/01/27 06:14:35;;;;;;;57.28;24.15;;;;;;;1.61;100.00;97822.47;5068891;28;20027;-84
2024/01/27 06:17:03;;;;;;;7.65;4.60;;;;;;;1.61;100.00;97843.56;5075255;28;20450;-84
2024/01/27 06:19:28;;;;;;;3.72;3.42;;;;;;;1.69;100.00;97840.75;5053967;28;20036;-86
2024/01/27 06:21:54;;;;;;;10.93;4.63;;;;;;;1.75;100.00;97827.44;5061358;28;20078;-81
2024/01/27 06:24:19;;;;;;;2.17;1.98;;;;;;;1.82;100.00;97842.19;5077907;28;20487;-81
2024/01/27 06:26:45;;;;;;;4.20;2.85;;;;;;;1.95;100.00;97858.59;5066665;28;20052;-82
2024/01/27 06:29:11;;;;;;;6.05;3.08;;;;;;;1.94;100.00;97854.25;5091953;28;20036;-82
2024/01/27 06:31:37;;;;;;;6.13;4.25;;;;;;;1.92;100.00;97848.13;5066702;28;20031;-84
2024/01/27 06:34:02;;;;;;;10.70;4.28;;;;;;;1.80;100.00;97859.84;5090514;28;20106;-86
2024/01/27 06:36:28;;;;;;;16.75;7.78;;;;;;;1.99;100.00;97874.34;5069957;28;20044;-84
2024/01/27 06:38:54;;;;;;;3.97;3.60;;;;;;;1.93;100.00;97865.69;5082462;28;20417;-84
2024/01/27 06:41:20;;;;;;;3.15;2.95;;;;;;;1.86;100.00;97872.88;5076571;28;20066;-85
2024/01/27 06:43:45;;;;;;;2.45;2.03;;;;;;;1.88;100.00;97881.59;5093175;28;20028;-85
2024/01/27 06:46:11;;;;;;;14.38;4.22;;;;;;;1.90;100.00;97890.38;5076798;28;20054;-89
2024/01/27 06:48:36;;;;;;;5.75;3.90;;;;;;;1.94;100.00;97891.19;5070341;28;20163;-84
2024/01/27 06:51:05;;;;;;;7.32;4.93;;;;;;;2.02;100.00;97884.81;5073510;28;20025;-84
2024/01/27 06:53:30;;;;;;;5.70;4.50;;;;;;;2.06;100.00;97888.25;5092480;28;20032;-86
2024/01/27 06:55:56;;;;;;;4.72;4.25;;;;;;;2.04;100.00;97880.38;5092906;28;20097;-81
2024/01/27 06:58:21;;;;;;;8.45;6.20;;;;;;;2.11;100.00;97873.19;5076197;28;20149;-83
2024/01/27 07:00:47;;;;;;;6.90;6.15;;;;;;;2.20;100.00;97867.69;5073170;28;20115;-82
2024/01/27 07:03:13;;;;;;;12.20;8.40;;;;;;;2.15;100.00;97864.31;5082258;28;20040;-83
2024/01/27 07:05:40;;;;;;;19.63;8.13;;;;;;;2.13;100.00;97847.63;5089132;28;20031;-84
2024/01/27 07:08:09;;;;;;;8.68;5.07;;;;;;;2.17;100.00;97841.38;5065906;28;20063;-84
2024/01/27 07:10:35;;;;;;;7.32;4.50;;;;;;;2.27;100.00;97832.34;5060034;28;20021;-83
2024/01/27 07:13:01;;;;;;;13.00;8.68;;;;;;;2.29;100.00;97812.06;5063172;28;20035;-85
2024/01/27 07:15:27;;;;;;;4.65;3.92;;;;;;;2.41;100.00;97808.22;5068013;28;20103;-84
2024/01/27 07:17:53;;;;;;;21.30;4.13;;;;;;;2.45;100.00;97808.13;5073196;28;20520;-76
2024/01/27 07:20:20;;;;;;;21.27;8.20;;;;;;;2.59;100.00;97805.97;5085591;28;20024;-79
2024/01/27 07:22:47;;;;;;;11.88;8.73;;;;;;;2.74;100.00;97795.00;5081500;28;20024;-79
2024/01/27 07:25:13;;;;;;;12.00;6.32;;;;;;;2.83;100.00;97778.03;5073452;28;20127;-78
2024/01/27 07:27:39;;;;;;;2.72;2.00;;;;;;;3.06;100.00;97791.47;5078055;28;20121;-80
2024/01/27 07:30:06;;;;;;;6.03;3.38;;;;;;;3.15;100.00;97798.28;5068228;28;20062;-81
2024/01/27 07:32:32;;;;;;;3.28;2.60;;;;;;;3.31;100.00;97798.69;5084906;28;20024;-82
2024/01/27 07:34:57;;;;;;;11.45;5.03;;;;;;;3.38;100.00;97806.41;5074952;28;20088;-71
2024/01/27 07:37:23;;;;;;;2.88;2.10;;;;;;;3.30;100.00;97818.97;5065227;28;20408;-82
2024/01/27 07:39:49;;;;;;;2.88;1.20;;;;;;;3.33;100.00;97821.53;5068658;28;20024;-79
2024/01/27 07:42:15;;;;;;;3.72;1.30;;;;;;;3.34;100.00;97831.19;5052702;28;20115;-82
2024/01/27 07:44:42;;;;;;;1.50;1.40;;;;;;;3.47;100.00;97856.38;5088045;28;20054;-78
2024/01/27 07:47:08;;;;;;;4.03;3.00;;;;;;;3.49;100.00;97859.84;5088081;28;20091;-79
2024/01/27 07:49:34;;;;;;;2.63;1.98;;;;;;;3.67;100.00;97867.22;5072828;28;20028;-81
2024/01/27 07:52:00;;;;;;;4.20;3.33;;;;;;;3.99;100.00;97868.03;5078705;28;20074;-80
2024/01/27 07:54:25;;;;;;;13.75;2.28;;;;;;;4.48;100.00;97883.25;5098942;28;20028;-80
2024/01/27 07:56:51;;;;;;;5.45;3.70;;;;;;;5.55;100.00;97892.75;5077701;28;20062;-79
2024/01/27 07:59:17;;;;;;;6.38;2.80;;;;;;;6.28;100.00;97889.97;5080654;28;20036;-79
2024/01/27 08:01:44;;;;;;;4.15;2.75;;;;;;;6.15;100.00;97862.19;5089875;28;20020;-78
2024/01/27 08:04:09;;;;;;;1.25;1.17;;;;;;;5.89;100.00;97871.16;5091424;28;20039;-80
2024/01/27 08:06:46;;;;;;;0.77;0.70;;;;;;;5.71;100.00;97870.03;5070974;28;20103;-79
2024/01/27 08:09:12;;;;;;;1.33;1.23;;;;;;;5.70;100.00;97894.81;5067380;28;20128;-79
2024/01/27 08:11:37;;;;;;;2.28;0.85;;;;;;;5.60;100.00;97901.38;5067972;28;20122;-79
2024/01/27 08:14:03;;;;;;;0.30;0.30;;;;;;;5.57;100.00;97896.19;5076499;28;20369;-79
2024/01/27 08:16:28;;;;;;;1.15;0.88;;;;;;;5.48;100.00;97896.53;5087054;28;20032;-80
2024/01/27 08:18:54;;;;;;;0.30;0.30;;;;;;;5.44;100.00;97924.94;5081461;28;20546;-79
2024/01/27 08:21:19;;;;;;;0.43;0.43;;;;;;;5.37;100.00;97922.59;5092472;28;20099;-80
2024/01/27 08:23:45;;;;;;;1.50;1.40;;;;;;;5.43;100.00;97922.38;5086959;28;20030;-80
2024/01/27 08:26:11;;;;;;;3.72;1.50;;;;;;;5.63;100.00;97900.44;5088673;28;20033;-80
2024/01/27 08:28:36;;;;;;;0.40;0.40;;;;;;;5.94;100.00;97890.41;5083003;28;20543;-80
2024/01/27 08:31:02;;;;;;;1.45;1.08;;;;;;;6.56;100.00;97890.59;5089306;28;20173;-79
2024/01/27 08:33:28;;;;;;;0.30;0.30;;;;;;;7.58;100.00;97885.31;5080649;28;20410;-77
2024/01/27 08:35:55;;;;;;;0.50;0.50;;;;;;;8.29;100.00;97858.97;5075242;28;20082;-80
2024/01/27 08:38:21;;;;;;;2.83;0.70;;;;;;;9.76;100.00;97814.88;5097288;28;20038;-82
2024/01/27 08:40:47;;;;;;;0.85;0.85;;;;;;;11.18;100.00;97798.63;5074028;28;20114;-81
2024/01/27 08:43:12;;;;;;;1.15;0.90;;;;;;;11.59;93.33;97777.38;5059509;28;20032;-79
2024/01/27 08:45:41;;;;;;;0.50;0.50;;;;;;;11.32;94.07;97798.66;5073794;28;20031;-79
2024/01/27 08:48:07;;;;;;;1.30;0.77;;;;;;;12.67;82.33;97779.28;5086305;28;20422;-80
2024/01/27 08:50:32;;;;;;;1.27;0.90;;;;;;;14.04;67.35;97770.59;5077111;28;20029;-81
2024/01/27 08:52:58;;;;;;;0.30;0.25;;;;;;;15.26;56.85;97749.69;5063258;28;20157;-78
2024/01/27 08:55:24;;;;;;;1.05;0.95;;;;;;;16.33;53.99;97755.53;5090406;28;20400;-79
2024/01/27 08:57:50;;;;;;;1.45;0.60;;;;;;;16.94;49.28;97763.00;5063323;28;20032;-77
2024/01/27 09:00:16;;;;;;;0.47;0.47;;;;;;;16.34;48.58;97758.09;5080188;28;20111;-77
2024/01/27 09:02:45;;;;;;;1.48;0.55;;;;;;;15.22;51.38;97755.44;5089982;28;20035;-78
2024/01/27 09:05:11;;;;;;;1.58;0.60;;;;;;;15.59;50.48;97763.28;5073105;28;20051;-79
2024/01/27 09:07:37;;;;;;;2.38;1.00;;;;;;;14.08;53.25;97764.88;5083411;28;20075;-79
2024/01/27 09:10:03;;;;;;;0.35;0.30;;;;;;;14.68;52.69;97766.75;5088369;28;20032;-80
2024/01/27 09:12:28;;;;;;;4.07;1.30;;;;;;;15.38;52.30;97750.59;5087321;28;20042;-80
2024/01/27 09:14:54;;;;;;;2.08;0.98;;;;;;;15.63;51.54;97751.25;5093690;28;20027;-79
2024/01/27 09:17:20;;;;;;;0.35;0.20;;;;;;;16.27;49.03;97743.41;5103643;28;20027;-80
2024/01/27 09:19:46;;;;;;;0.73;0.40;;;;;;;16.80;48.10;97745.25;5088439;28;20012;-79
2024/01/27 09:22:11;;;;;;;0.52;0.52;;;;;;;16.68;46.31;97730.06;5078075;28;20088;-78
2024/01/27 09:24:37;;;;;;;0.43;0.40;;;;;;;15.22;49.57;97740.16;5089533;28;20120;-77
2024/01/27 09:27:03;;;;;;;4.65;1.05;;;;;;;14.37;51.55;97765.47;5054515;28;20147;-74
2024/01/27 09:29:29;;;;;;;0.82;0.77;;;;;;;12.87;55.33;97786.00;5083814;28;20369;-75
2024/01/27 09:31:55;;;;;;;5.88;1.40;;;;;;;12.14;61.12;97780.13;5066675;28;20081;-75
2024/01/27 09:34:20;;;;;;;0.90;0.90;;;;;;;11.42;73.37;97796.28;5077730;28;20024;-75
2024/01/27 09:36:46;;;;;;;1.45;1.27;;;;;;;11.34;74.53;97806.59;5079896;28;20036;-75
2024/01/27 09:39:12;;;;;;;1.38;0.80;;;;;;;10.81;78.76;97801.78;5067968;28;20036;-74
2024/01/27 09:41:38;;;;;;;2.03;1.05;;;;;;;10.81;80.87;97807.13;5086472;28;20062;-74
2024/01/27 09:44:04;;;;;;;1.58;1.05;;;;;;;10.67;80.78;97824.00;5069437;28;20031;-75
2024/01/27 09:46:32;;;;;;;1.17;1.08;;;;;;;10.68;71.72;97798.97;5069709;28;20119;-75
2024/01/27 09:48:58;;;;;;;1.60;0.60;;;;;;;10.50;77.54;97812.53;5086291;28;20113;-73
2024/01/27 09:51:24;;;;;;;0.40;0.40;;;;;;;9.87;85.53;97809.84;5059717;28;20105;-75
2024/01/27 09:53:51;;;;;;;0.47;0.43;;;;;;;9.37;94.80;97817.91;5072181;28;20483;-75
2024/01/27 09:56:20;;;;;;;1.25;0.98;;;;;;;9.11;95.06;97840.59;5066793;28;20028;-75
2024/01/27 09:58:47;;;;;;;1.02;0.47;;;;;;;8.72;100.00;97839.94;5067724;28;20031;-75
2024/01/27 10:01:12;;;;;;;0.75;0.60;;;;;;;8.64;100.00;97844.81;5077445;28;20024;-76
2024/01/27 10:03:40;;;;;;;0.60;0.60;;;;;;;8.62;100.00;97838.66;5083646;28;20536;-76
2024/01/27 10:06:09;;;;;;;1.10;0.65;;;;;;;8.70;100.00;97833.84;5095415;28;20035;-78
2024/01/27 10:08:35;;;;;;;1.60;0.73;;;;;;;8.63;100.00;97853.75;5060588;28;20032;-78
2024/01/27 10:11:07;;;;;;;1.25;1.15;;;;;;;8.60;100.00;97845.91;5092645;28;20035;-77
2024/01/27 10:13:33;;;;;;;3.65;0.80;;;;;;;8.67;100.00;97861.50;5064942;28;20036;-79
2024/01/27 10:16:02;;;;;;;2.38;0.63;;;;;;;8.78;100.00;97860.97;5084457;28;20024;-79
2024/01/27 10:18:29;;;;;;;0.25;0.25;;;;;;;8.66;100.00;97848.25;5068014;28;20037;-80
2024/01/27 10:20:54;;;;;;;0.47;0.32;;;;;;;8.53;100.00;97847.13;5061735;28;20480;-80
2024/01/27 10:23:20;;;;;;;0.57;0.50;;;;;;;8.52;100.00;97851.59;5059838;28;20098;-79
2024/01/27 10:25:45;;;;;;;0.17;0.17;;;;;;;8.51;100.00;97846.34;5081852;28;20056;-80
2024/01/27 10:28:11;;;;;;;2.00;1.40;;;;;;;8.62;100.00;97863.53;5085732;28;20079;-79
2024/01/27 10:30:37;;;;;;;0.95;0.80;;;;;;;8.53;100.00;97873.78;5064396;28;20055;-79
2024/01/27 10:33:03;;;;;;;0.95;0.52;;;;;;;8.38;100.00;97877.19;5071203;28;20096;-75
2024/01/27 10:35:29;;;;;;;5.10;2.75;;;;;;;8.34;100.00;97873.81;5091762;28;20032;-77
2024/01/27 10:37:56;;;;;;;1.77;0.95;;;;;;;8.42;100.00;97892.09;5089861;28;20028;-79
2024/01/27 10:40:26;;;;;;;0.85;0.47;;;;;;;8.30;100.00;97901.56;5060567;28;20051;-75
2024/01/27 10:43:06;;;;;;;2.00;0.93;;;;;;;8.12;100.00;97905.06;5087024;28;20071;-84
2024/01/27 10:45:36;;;;;;;0.65;0.60;;;;;;;8.03;100.00;97906.31;5065181;28;20404;-85
2024/01/27 10:48:03;;;;;;;1.35;0.80;;;;;;;7.95;100.00;97913.81;5071827;28;20085;-85
2024/01/27 10:50:29;;;;;;;0.52;0.30;;;;;;;7.83;100.00;97906.38;5068356;28;20094;-86
2024/01/27 10:52:57;;;;;;;0.32;0.32;;;;;;;7.90;100.00;97917.63;5062669;28;20036;-82
2024/01/27 10:55:24;;;;;;;0.25;0.25;;;;;;;7.94;100.00;97922.72;5070218;28;20040;-84
2024/01/27 10:57:52;;;;;;;2.15;1.42;;;;;;;7.99;100.00;97934.06;5074993;28;20059;-85
2024/01/27 11:00:18;;;;;;;0.98;0.60;;;;;;;7.94;100.00;97936.03;5061417;28;20413;-83
2024/01/27 11:02:44;;;;;;;1.73;1.23;;;;;;;8.02;100.00;97936.56;5074603;28;20058;-84
2024/01/27 11:05:10;;;;;;;0.50;0.50;;;;;;;7.89;100.00;97940.72;5062543;28;20032;-86
2024/01/27 11:07:37;;;;;;;1.27;0.93;;;;;;;7.83;100.00;97930.34;5067404;28;20024;-83
2024/01/27 11:10:03;;;;;;;3.90;1.35;;;;;;;7.93;100.00;97947.66;5063471;28;20037;-83
2024/01/27 11:12:35;;;;;;;2.83;0.75;;;;;;;7.99;100.00;97935.84;5082336;28;20057;-83
2024/01/27 11:15:02;;;;;;;3.72;1.23;;;;;;;8.01;100.00;97947.28;5060246;28;20481;-84
2024/01/27 11:17:28;;;;;;;0.82;0.82;;;;;;;8.01;100.00;97950.81;5069191;28;20032;-83